Airfield :
LOGIN :

Register | Disclaimer

   EN    FR    IT 

 










Legend :    VFR   Marginal VFR   IFR   Intensive IFR   Very Intensive IFR
Visi :
Ceiling :
>= 8 km
>= 3000ft
5 to 8 km
1000 to 3000 ft
1500m to 5 km
500 to 1000 ft
800 to 1500m
200 to 500 ft
< 800m
< 200 ft
Symbols :   Thunderstorms  Fog  Heavy snow  Heavy precipitations  Wind > 20 kt
SIGMETs :     Misc.  Thunderstorms  Icing  Turbulence  Mountain Waves  Volcanic Ashes






- Airport Elevation : 100 ft


EBDT - Schaffen

CURRENT METAR :
  • 281725Z AUTO 26007KT 9999 -RA FEW015/// SCT022/// BKN030/// 11/09 Q1007 WHT

EXPIRED METARs :
  • 281655Z AUTO 19006KT 9999 -RA FEW032/// OVC049/// 11/09 Q1006 BLU
  • 281625Z AUTO 21014KT 9999 -RA FEW043/// SCT065/// BKN080/// 12/08 Q1007 BLU
  • 281555Z AUTO 20012KT 9999 FEW031/// SCT036/// BKN042/// 13/08 Q1007 BLU
  • 281525Z AUTO 20010KT 9999 FEW020/// BKN034/// OVC055/// 13/08 Q1007 BLU
  • 281521Z AUTO 20009KT 7000 RA SCT031/// BKN041/// BKN060/// 13/08 Q1007 WHT
  • 281455Z AUTO 21011G21KT 9999 FEW033/// SCT042/// BKN049/// 13/07 Q1007 BLU

Expired Forecast.



MET'MAP, your aeronautical weather chart ! - Copyright ORBIFLY December 2007 - Disclaimer

ORBIFLY MET'MAP TEAM :

Programming & Development : Alexandra Zaïnal
Concept & original design : Baudouin d'Aumeries
Assistance for programming : Marc-Olivier Méhu
Technical & hardware support : Manuel Goepfert

Contact : metmap@orbifly.com




SOURCES & CREDITS :

   NOAA